Time;durP1;ratioP1;P1;durP2;ratioP2;P2;SDS_P1;SDS_P2;PMS_P1;PMS_P2;Temp;Humidity;BMP_temperature;BMP_pressure;BME280_temperature;BME280_humidity;BME280_pressure;Samples;Min_cycle;Max_cycle;Signal;HPM_P1;HPM_P2
2021/11/24 00:03:55;;;;;;;4.33;1.70;;;17.50;59.60;;;;;;10454881;28;20221;-65
2021/11/24 00:09:17;;;;;;;3.17;1.93;;;17.50;59.60;;;;;;10449288;28;20197;-65
2021/11/24 00:14:42;;;;;;;3.63;2.03;;;17.50;59.60;;;;;;10451770;28;20565;-64
2021/11/24 00:20:05;;;;;;;4.50;2.30;;;17.50;59.60;;;;;;10443432;28;20193;-65
2021/11/24 00:25:28;;;;;;;3.23;2.00;;;17.50;59.40;;;;;;10458871;28;20584;-64
2021/11/24 00:30:51;;;;;;;3.60;1.93;;;17.50;59.40;;;;;;10459245;28;20217;-64
2021/11/24 00:36:13;;;;;;;4.13;1.80;;;17.50;59.50;;;;;;10459244;28;20226;-65
2021/11/24 00:41:35;;;;;;;4.47;1.90;;;17.50;59.60;;;;;;10434845;28;20209;-65
2021/11/24 00:46:59;;;;;;;3.43;1.50;;;17.40;59.50;;;;;;10457818;28;20886;-64
2021/11/24 00:52:21;;;;;;;4.37;1.80;;;17.50;59.60;;;;;;10459132;28;20209;-64
2021/11/24 00:57:43;;;;;;;2.60;1.80;;;17.40;59.60;;;;;;10458118;28;20587;-64
2021/11/24 01:03:06;;;;;;;2.40;1.67;;;17.40;59.60;;;;;;10457896;28;20236;-65
2021/11/24 01:08:28;;;;;;;4.97;2.20;;;17.40;59.50;;;;;;10440213;28;20264;-65
2021/11/24 01:13:50;;;;;;;2.37;1.57;;;17.40;59.50;;;;;;10417555;28;20293;-65
2021/11/24 01:19:14;;;;;;;4.37;1.90;;;17.40;59.50;;;;;;10417146;28;20762;-65
2021/11/24 01:24:37;;;;;;;2.20;1.50;;;17.40;59.50;;;;;;10416455;28;20214;-64
2021/11/24 01:29:59;;;;;;;2.77;1.60;;;17.40;59.40;;;;;;10416073;28;20194;-65
2021/11/24 01:35:22;;;;;;;3.77;1.87;;;17.50;59.50;;;;;;10416342;28;20213;-64
2021/11/24 01:40:45;;;;;;;2.73;1.80;;;17.40;59.40;;;;;;10447955;28;20553;-65
2021/11/24 01:46:07;;;;;;;2.83;1.80;;;17.40;59.50;;;;;;10455647;28;20221;-64
2021/11/24 01:51:31;;;;;;;4.30;1.97;;;17.40;59.40;;;;;;10455625;28;20220;-65
2021/11/24 01:56:53;;;;;;;3.73;1.93;;;17.40;59.30;;;;;;10455527;28;20200;-64
2021/11/24 02:02:17;;;;;;;3.93;1.70;;;17.40;59.40;;;;;;10455548;28;20217;-65
2021/11/24 02:07:41;;;;;;;3.00;1.60;;;17.40;59.40;;;;;;10453215;28;20680;-65
2021/11/24 02:13:03;;;;;;;2.40;1.70;;;17.40;59.40;;;;;;10455581;28;20278;-64
2021/11/24 02:18:25;;;;;;;2.47;1.80;;;17.40;59.40;;;;;;10456040;28;20197;-65
2021/11/24 02:23:48;;;;;;;3.00;1.80;;;17.40;59.40;;;;;;10455250;28;20220;-65
2021/11/24 02:29:11;;;;;;;1.73;1.43;;;17.40;59.40;;;;;;10455993;28;20193;-65
2021/11/24 02:34:33;;;;;;;3.43;1.83;;;17.40;59.40;;;;;;10454561;28;20600;-64
2021/11/24 02:39:56;;;;;;;2.37;1.50;;;17.30;59.30;;;;;;10453877;28;20690;-65
2021/11/24 02:45:18;;;;;;;3.60;1.60;;;17.40;59.40;;;;;;10453072;28;20224;-65
2021/11/24 02:50:41;;;;;;;2.13;1.43;;;17.40;59.50;;;;;;10452883;28;20715;-65
2021/11/24 02:56:05;;;;;;;2.47;1.70;;;17.40;59.40;;;;;;10453020;28;20684;-64
2021/11/24 03:01:27;;;;;;;2.63;1.60;;;17.40;59.40;;;;;;10451107;28;20221;-65
2021/11/24 03:06:49;;;;;;;2.43;1.70;;;17.30;59.30;;;;;;10450601;28;20221;-65
2021/11/24 03:12:13;;;;;;;1.80;1.57;;;17.30;59.40;;;;;;10451972;28;20718;-64
2021/11/24 03:17:36;;;;;;;6.23;2.00;;;17.40;59.40;;;;;;10455309;28;20189;-66
2021/11/24 03:22:59;;;;;;;2.00;1.30;;;17.40;59.30;;;;;;10454020;28;20216;-64
2021/11/24 03:28:23;;;;;;;2.63;1.73;;;17.30;59.30;;;;;;10452280;28;20224;-64
2021/11/24 03:33:45;;;;;;;2.10;1.67;;;17.30;59.40;;;;;;10452519;28;20213;-64
2021/11/24 03:39:07;;;;;;;2.10;1.50;;;17.30;59.40;;;;;;10453244;28;20201;-65
2021/11/24 03:44:31;;;;;;;3.03;1.83;;;17.30;59.30;;;;;;10447842;28;20596;-64
2021/11/24 03:49:53;;;;;;;2.20;1.73;;;17.40;60.00;;;;;;10451511;28;20205;-64
2021/11/24 03:55:16;;;;;;;3.00;1.53;;;17.30;59.50;;;;;;10450844;28;20584;-65
2021/11/24 04:00:40;;;;;;;5.73;2.33;;;17.30;59.40;;;;;;10450597;28;20268;-64
2021/11/24 04:06:02;;;;;;;2.13;1.90;;;17.30;59.40;;;;;;10452341;28;20213;-66
2021/11/24 04:11:24;;;;;;;3.40;2.20;;;17.30;59.40;;;;;;10450300;28;20223;-64
2021/11/24 04:16:47;;;;;;;3.60;2.57;;;17.30;59.40;;;;;;10451735;28;20200;-65
2021/11/24 04:22:10;;;;;;;2.97;2.20;;;17.30;59.50;;;;;;10451718;28;20726;-66
2021/11/24 04:27:32;;;;;;;2.67;2.20;;;17.30;59.40;;;;;;10451510;28;20231;-64
2021/11/24 04:32:55;;;;;;;3.27;2.30;;;17.30;59.40;;;;;;10417879;28;20228;-64
2021/11/24 04:38:17;;;;;;;3.17;2.40;;;17.30;59.40;;;;;;10412907;28;20200;-64
2021/11/24 04:43:42;;;;;;;3.07;2.20;;;17.30;59.20;;;;;;10434943;28;20221;-66
2021/11/24 04:49:05;;;;;;;2.00;1.37;;;17.40;58.90;;;;;;10431929;28;20213;-64
2021/11/24 04:54:28;;;;;;;2.20;1.93;;;17.50;58.90;;;;;;10442961;28;20217;-65
2021/11/24 04:59:50;;;;;;;3.47;1.57;;;17.60;58.50;;;;;;10446711;28;20720;-65
2021/11/24 05:05:13;;;;;;;2.27;1.63;;;17.60;58.30;;;;;;10451881;28;20651;-64
2021/11/24 05:10:35;;;;;;;2.23;1.50;;;17.60;58.10;;;;;;10452158;28;20190;-65
2021/11/24 05:16:01;;;;;;;1.83;1.50;;;17.60;58.10;;;;;;10449309;28;20568;-65
2021/11/24 05:21:27;;;;;;;1.43;1.20;;;17.60;58.30;;;;;;10453026;28;20223;-64
2021/11/24 05:26:50;;;;;;;2.67;1.20;;;17.60;58.40;;;;;;10452772;28;20350;-64
2021/11/24 05:32:12;;;;;;;1.53;1.20;;;17.70;58.50;;;;;;10451460;28;20692;-65
2021/11/24 05:37:36;;;;;;;2.20;1.37;;;17.70;58.30;;;;;;10463777;22;20574;-61
2021/11/24 05:42:58;;;;;;;3.13;1.30;;;17.70;58.00;;;;;;10438677;28;20722;-61
2021/11/24 05:48:21;;;;;;;4.60;1.30;;;17.80;58.10;;;;;;10443957;28;20717;-61
2021/11/24 05:53:45;;;;;;;3.13;1.83;;;17.80;57.80;;;;;;10454997;28;20219;-61
2021/11/24 05:59:08;;;;;;;2.10;1.67;;;17.80;57.30;;;;;;10437666;28;20220;-61
2021/11/24 06:04:30;;;;;;;2.60;1.63;;;17.80;57.30;;;;;;10451801;28;20227;-61
2021/11/24 06:09:55;;;;;;;3.67;2.00;;;17.80;57.30;;;;;;10454163;28;20574;-61
2021/11/24 06:15:17;;;;;;;2.10;1.57;;;17.80;57.40;;;;;;10453299;28;20224;-57
2021/11/24 06:20:40;;;;;;;3.57;1.80;;;17.80;57.70;;;;;;10447076;28;20200;-59
2021/11/24 06:26:04;;;;;;;2.60;1.87;;;17.70;57.80;;;;;;10445648;28;20327;-60
2021/11/24 06:31:28;;;;;;;3.83;2.07;;;17.60;58.20;;;;;;10452536;28;20185;-58
2021/11/24 06:36:53;;;;;;;3.13;2.57;;;17.60;58.60;;;;;;10441837;28;20219;-59
2021/11/24 06:42:17;;;;;;;2.43;2.20;;;17.50;58.80;;;;;;10449679;28;20288;-56
2021/11/24 06:47:40;;;;;;;3.50;2.70;;;17.50;59.00;;;;;;10451602;28;20586;-61
2021/11/24 06:53:02;;;;;;;3.80;2.70;;;17.50;59.10;;;;;;10446267;28;20677;-58
2021/11/24 06:58:26;;;;;;;3.07;2.63;;;17.50;59.10;;;;;;10445750;28;20221;-56
2021/11/24 07:03:48;;;;;;;3.30;2.63;;;17.50;59.60;;;;;;10450724;28;20201;-61
2021/11/24 07:09:11;;;;;;;3.77;3.03;;;17.50;59.10;;;;;;10450854;28;20212;-61
2021/11/24 07:14:34;;;;;;;4.00;3.60;;;17.50;58.90;;;;;;10438698;28;20448;-61
2021/11/24 07:19:57;;;;;;;5.50;3.37;;;17.90;57.30;;;;;;10439849;28;20189;-62
2021/11/24 07:25:19;;;;;;;3.70;3.10;;;17.70;58.00;;;;;;10445049;28;20233;-61
2021/11/24 07:30:43;;;;;;;3.10;2.60;;;17.60;58.50;;;;;;10422166;28;20204;-62
2021/11/24 07:36:05;;;;;;;2.67;2.23;;;17.60;58.60;;;;;;10450038;28;20228;-62
2021/11/24 07:41:27;;;;;;;3.10;2.80;;;17.60;58.80;;;;;;10446802;28;20197;-62
2021/11/24 07:46:51;;;;;;;4.13;3.73;;;17.70;58.60;;;;;;10431622;28;20712;-63
2021/11/24 07:52:13;;;;;;;5.63;4.33;;;17.70;58.50;;;;;;10448705;28;20551;-61
2021/11/24 07:57:36;;;;;;;3.83;3.20;;;17.70;58.30;;;;;;10441726;28;20209;-61
2021/11/24 08:02:59;;;;;;;7.10;4.70;;;17.70;58.50;;;;;;10446705;28;20258;-59
2021/11/24 08:08:21;;;;;;;6.23;4.93;;;17.70;58.30;;;;;;10447298;28;20590;-62
2021/11/24 08:13:43;;;;;;;10.03;6.23;;;17.70;58.50;;;;;;10447770;28;20197;-63
2021/11/24 08:19:07;;;;;;;11.57;6.10;;;17.70;58.60;;;;;;10450147;28;20216;-63
2021/11/24 08:24:29;;;;;;;6.53;5.63;;;17.70;58.80;;;;;;10447979;28;20655;-60
2021/11/24 08:29:51;;;;;;;9.40;5.20;;;17.60;59.10;;;;;;10447577;28;20216;-61
2021/11/24 08:35:16;;;;;;;12.27;8.60;;;17.60;59.20;;;;;;10447063;28;20232;-60
2021/11/24 08:40:38;;;;;;;9.40;7.70;;;17.60;59.40;;;;;;10455530;28;20189;-61
2021/11/24 08:46:00;;;;;;;7.73;6.80;;;17.50;59.60;;;;;;10455973;28;20674;-61
2021/11/24 08:51:24;;;;;;;7.70;6.17;;;17.50;59.80;;;;;;10454600;28;20197;-60
2021/11/24 08:56:46;;;;;;;6.27;5.67;;;17.50;60.00;;;;;;10435301;28;20217;-61
2021/11/24 09:02:10;;;;;;;6.87;4.87;;;17.50;60.20;;;;;;10448704;28;20220;-61
2021/11/24 09:07:33;;;;;;;6.53;4.70;;;17.50;60.40;;;;;;10452132;28;20216;-61
2021/11/24 09:12:57;;;;;;;6.43;5.00;;;17.40;60.40;;;;;;10445848;28;20674;-61
2021/11/24 09:18:20;;;;;;;5.10;4.60;;;17.40;60.60;;;;;;10454746;28;20221;-63
2021/11/24 09:23:45;;;;;;;5.97;5.37;;;17.40;60.50;;;;;;10447014;28;20578;-60
2021/11/24 09:29:08;;;;;;;6.43;5.20;;;17.50;60.10;;;;;;10443528;28;20225;-62
2021/11/24 09:34:31;;;;;;;4.80;3.90;;;17.50;59.60;;;;;;10458086;28;20228;-62
2021/11/24 09:39:54;;;;;;;4.03;3.70;;;17.60;59.50;;;;;;10454193;28;20270;-60
2021/11/24 09:45:18;;;;;;;5.90;4.50;;;17.60;59.40;;;;;;10454640;28;20749;-61
2021/11/24 09:50:40;;;;;;;4.10;3.50;;;17.70;59.20;;;;;;10450314;28;20197;-62
2021/11/24 09:56:04;;;;;;;3.77;3.37;;;17.80;59.10;;;;;;10450979;28;20209;-61
2021/11/24 10:01:26;;;;;;;3.97;3.57;;;17.70;58.80;;;;;;10454672;28;20204;-61
2021/11/24 10:06:49;;;;;;;4.40;2.93;;;17.80;58.80;;;;;;10466676;28;20228;-62
2021/11/24 10:12:14;;;;;;;3.30;2.90;;;17.80;58.80;;;;;;10455251;28;20193;-62
2021/11/24 10:17:36;;;;;;;3.33;3.03;;;17.80;58.90;;;;;;10453162;28;20721;-59
2021/11/24 10:23:23;;;;;;;4.63;3.60;;;17.70;59.00;;;;;;10452599;28;20201;-57
2021/11/24 10:28:55;;;;;;;3.27;2.97;;;17.70;59.20;;;;;;10438728;28;20246;-61
2021/11/24 10:34:21;;;;;;;3.77;3.10;;;17.60;59.50;;;;;;10441116;28;20201;-60
2021/11/24 10:39:47;;;;;;;3.40;2.57;;;17.60;59.70;;;;;;10451239;28;20272;-62
2021/11/24 10:45:13;;;;;;;2.47;2.27;;;17.60;59.80;;;;;;10450106;28;20296;-61
2021/11/24 10:50:39;;;;;;;4.50;2.83;;;17.50;60.00;;;;;;10436951;28;20204;-61
2021/11/24 10:56:12;;;;;;;3.40;3.10;;;17.60;60.20;;;;;;10450218;28;20223;-61
2021/11/24 11:01:34;;;;;;;3.20;2.80;;;17.50;60.00;;;;;;10451507;28;20189;-62
2021/11/24 11:07:10;;;;;;;3.17;2.87;;;17.40;60.00;;;;;;10452168;28;20209;-60
2021/11/24 11:12:35;;;;;;;4.97;3.77;;;17.40;59.80;;;;;;10451132;28;20582;-64
2021/11/24 11:18:16;;;;;;;4.07;3.17;;;17.40;59.70;;;;;;10450461;28;20208;-63
2021/11/24 11:23:40;;;;;;;4.23;3.40;;;17.30;59.60;;;;;;10446383;28;20246;-64
2021/11/24 11:29:04;;;;;;;3.23;2.77;;;17.40;59.40;;;;;;10450018;28;20221;-64
2021/11/24 11:34:26;;;;;;;3.07;2.40;;;17.50;59.30;;;;;;10471678;22;20231;-69
2021/11/24 11:39:48;;;;;;;4.73;3.40;;;17.50;58.90;;;;;;10470916;28;20192;-70
2021/11/24 11:45:14;;;;;;;4.73;2.77;;;17.50;58.60;;;;;;10489598;28;20216;-70
2021/11/24 11:50:54;;;;;;;3.70;2.80;;;17.50;58.50;;;;;;10477644;28;20227;-72
2021/11/24 11:56:19;;;;;;;3.20;2.90;;;17.40;58.40;;;;;;10482037;28;20283;-69
2021/11/24 12:01:57;;;;;;;2.80;2.23;;;17.40;58.70;;;;;;10487489;28;20235;-69
2021/11/24 12:07:22;;;;;;;2.50;1.73;;;17.30;58.60;;;;;;10474929;28;20216;-69
2021/11/24 12:12:44;;;;;;;2.20;2.00;;;17.30;58.80;;;;;;10481663;28;20196;-69
2021/11/24 12:18:12;;;;;;;2.33;2.13;;;17.30;58.90;;;;;;10481936;28;20697;-69
2021/11/24 12:23:34;;;;;;;2.53;2.10;;;17.30;59.00;;;;;;10483836;28;20228;-69
2021/11/24 12:28:56;;;;;;;2.53;2.30;;;17.30;59.10;;;;;;10475923;28;20239;-69
2021/11/24 12:34:20;;;;;;;2.23;2.03;;;17.20;59.20;;;;;;10496228;28;20224;-70
2021/11/24 12:39:42;;;;;;;1.87;1.70;;;17.30;59.00;;;;;;10492360;28;20559;-70
2021/11/24 12:45:04;;;;;;;2.33;1.40;;;17.30;59.00;;;;;;10484597;28;20213;-69
2021/11/24 12:50:30;;;;;;;1.83;1.47;;;17.50;58.90;;;;;;10485052;28;20234;-66
2021/11/24 12:56:05;;;;;;;3.07;2.03;;;17.50;58.60;;;;;;10496050;28;20205;-67
2021/11/24 13:01:32;;;;;;;2.47;2.07;;;17.60;58.10;;;;;;10490744;28;20196;-67
2021/11/24 13:06:56;;;;;;;3.23;1.60;;;17.70;58.10;;;;;;10496868;28;20213;-67
2021/11/24 13:12:19;;;;;;;1.87;1.50;;;17.80;57.60;;;;;;10479308;28;20702;-67
2021/11/24 13:17:45;;;;;;;2.93;2.27;;;17.80;57.60;;;;;;10486021;28;20219;-67
2021/11/24 13:23:09;;;;;;;1.97;1.77;;;17.80;57.40;;;;;;10481343;28;20676;-67
2021/11/24 13:28:31;;;;;;;2.47;1.80;;;17.70;57.30;;;;;;10469869;28;20232;-66
2021/11/24 13:33:53;;;;;;;4.05;2.63;;;17.70;57.50;;;;;;10478010;28;20438;-71
2021/11/24 13:39:16;;;;;;;3.10;2.50;;;18.40;55.10;;;;;;10490020;28;20199;-70
2021/11/24 13:44:53;;;;;;;3.03;1.83;;;18.00;56.20;;;;;;10467816;28;20239;-71
2021/11/24 13:50:24;;;;;;;2.40;2.20;;;17.80;56.70;;;;;;10488076;28;20710;-71
2021/11/24 13:55:47;;;;;;;3.60;1.83;;;17.80;56.60;;;;;;10490136;28;20216;-70
2021/11/24 14:01:17;;;;;;;1.53;1.43;;;17.70;57.90;;;;;;10482798;28;20672;-71
2021/11/24 14:06:45;;;;;;;1.97;1.70;;;17.70;57.10;;;;;;10478632;28;20223;-69
2021/11/24 14:12:11;;;;;;;1.40;1.30;;;17.60;57.20;;;;;;10486540;28;20201;-69
2021/11/24 14:17:37;;;;;;;2.60;1.13;;;17.70;57.70;;;;;;10488531;28;20205;-66
2021/11/24 14:23:02;;;;;;;2.33;1.57;;;17.70;57.90;;;;;;10478504;28;20196;-67
2021/11/24 14:28:30;;;;;;;2.10;1.60;;;17.80;58.50;;;;;;10488368;28;20231;-66
2021/11/24 14:33:53;;;;;;;1.90;1.47;;;17.90;57.80;;;;;;10491987;28;20206;-69
2021/11/24 14:39:15;;;;;;;1.20;1.10;;;17.90;56.50;;;;;;10487002;28;20199;-68
2021/11/24 14:44:38;;;;;;;2.47;1.50;;;17.90;56.50;;;;;;10483859;28;20707;-68
2021/11/24 14:50:01;;;;;;;2.10;1.40;;;17.90;56.60;;;;;;10478095;28;20216;-67
2021/11/24 14:55:23;;;;;;;1.50;1.40;;;17.90;56.60;;;;;;10483004;28;20591;-66
2021/11/24 15:00:47;;;;;;;1.83;1.57;;;17.90;56.80;;;;;;10484383;28;20583;-66
2021/11/24 15:06:10;;;;;;;2.87;2.10;;;17.90;57.00;;;;;;10475940;28;20228;-66
2021/11/24 15:11:32;;;;;;;4.87;3.27;;;17.90;57.10;;;;;;10475313;28;20337;-66
2021/11/24 15:16:56;;;;;;;3.97;3.27;;;17.80;57.30;;;;;;10473615;28;20611;-68
2021/11/24 15:22:19;;;;;;;3.77;2.60;;;17.90;57.40;;;;;;10483670;28;20200;-66
2021/11/24 15:27:41;;;;;;;2.50;2.30;;;17.90;57.50;;;;;;10480227;28;20231;-66
2021/11/24 15:33:04;;;;;;;2.23;2.00;;;17.80;57.60;;;;;;10487317;28;20842;-66
2021/11/24 15:38:26;;;;;;;3.17;2.37;;;17.80;57.50;;;;;;10486222;28;20220;-64
2021/11/24 15:43:48;;;;;;;3.17;1.97;;;17.90;57.10;;;;;;10486415;28;20687;-65
2021/11/24 15:49:12;;;;;;;1.97;1.50;;;17.90;56.80;;;;;;10491703;28;20219;-65
2021/11/24 15:54:35;;;;;;;1.70;1.50;;;17.90;56.70;;;;;;10492508;28;20324;-65
2021/11/24 15:59:57;;;;;;;1.70;1.20;;;17.90;56.80;;;;;;10492376;28;20192;-65
2021/11/24 16:05:20;;;;;;;1.50;1.40;;;18.00;57.10;;;;;;10492218;28;20209;-64
2021/11/24 16:10:44;;;;;;;1.83;1.57;;;18.00;56.50;;;;;;10473629;28;20599;-65
2021/11/24 16:16:07;;;;;;;1.60;1.40;;;18.00;56.30;;;;;;10509637;28;20216;-62
2021/11/24 16:21:30;;;;;;;1.80;1.45;;;18.00;56.20;;;;;;10501938;28;20426;-64
2021/11/24 16:26:52;;;;;;;1.40;1.30;;;18.50;55.80;;;;;;10491936;28;20291;-65
2021/11/24 16:32:14;;;;;;;1.60;1.20;;;18.20;57.20;;;;;;10491934;28;20411;-65
2021/11/24 16:37:38;;;;;;;2.67;1.23;;;18.10;57.40;;;;;;10492113;28;20231;-65
2021/11/24 16:43:01;;;;;;;2.00;1.63;;;18.00;56.70;;;;;;10491151;28;20203;-65
2021/11/24 16:48:24;;;;;;;1.40;1.30;;;18.00;57.00;;;;;;10491234;28;20301;-64
2021/11/24 16:53:47;;;;;;;2.13;1.40;;;18.00;57.20;;;;;;10492097;28;20200;-64
2021/11/24 16:59:09;;;;;;;2.57;1.20;;;18.00;56.60;;;;;;10494260;28;20695;-63
2021/11/24 17:04:32;;;;;;;1.40;1.27;;;17.90;57.70;;;;;;10495583;28;20228;-65
2021/11/24 17:09:55;;;;;;;2.13;1.93;;;17.90;58.30;;;;;;10485870;28;20229;-65
2021/11/24 17:15:18;;;;;;;2.73;1.87;;;17.90;56.60;;;;;;10457891;28;20231;-63
2021/11/24 17:20:40;;;;;;;2.30;1.70;;;18.00;56.30;;;;;;10471251;28;20582;-65
2021/11/24 17:26:04;;;;;;;1.63;1.53;;;18.00;56.50;;;;;;10498060;28;20216;-65
2021/11/24 17:31:28;;;;;;;3.33;2.70;;;18.00;57.00;;;;;;10494847;28;20714;-68
2021/11/24 17:36:50;;;;;;;8.40;5.20;;;18.00;56.10;;;;;;10509746;22;20626;-63
2021/11/24 17:42:13;;;;;;;4.63;3.97;;;18.00;55.90;;;;;;10472766;28;20258;-65
2021/11/24 17:47:35;;;;;;;7.93;3.67;;;18.00;56.10;;;;;;10483439;28;20717;-65
2021/11/24 17:52:58;;;;;;;6.30;4.20;;;18.00;55.90;;;;;;10502695;28;20197;-65
2021/11/24 17:58:24;;;;;;;5.47;3.43;;;18.00;56.00;;;;;;10513220;28;20695;-65
2021/11/24 18:03:47;;;;;;;3.27;2.90;;;18.00;56.10;;;;;;10498369;28;20200;-66
2021/11/24 18:09:09;;;;;;;4.65;3.10;;;18.00;56.30;;;;;;10524447;28;20819;-67
2021/11/24 18:14:35;;;;;;;2.73;2.47;;;18.20;55.90;;;;;;10487839;28;20192;-65
2021/11/24 18:19:58;;;;;;;4.30;2.37;;;18.00;56.00;;;;;;10473170;28;20205;-66
2021/11/24 18:25:20;;;;;;;4.07;2.47;;;17.90;56.00;;;;;;10480904;28;20579;-65
2021/11/24 18:30:44;;;;;;;4.43;3.20;;;17.80;56.20;;;;;;10482744;28;20208;-66
2021/11/24 18:36:06;;;;;;;4.70;2.37;;;17.80;56.40;;;;;;10476294;28;20220;-65
2021/11/24 18:41:28;;;;;;;2.83;2.20;;;17.70;56.30;;;;;;10495060;28;20189;-65
2021/11/24 18:46:52;;;;;;;3.33;2.03;;;17.70;56.30;;;;;;10492543;28;20224;-64
2021/11/24 18:52:14;;;;;;;4.40;1.90;;;17.80;57.10;;;;;;10487417;28;20204;-65
2021/11/24 18:57:36;;;;;;;1.93;1.67;;;17.80;57.60;;;;;;10491863;28;20223;-65
2021/11/24 19:03:00;;;;;;;2.00;1.70;;;17.80;57.20;;;;;;10495807;28;20203;-65
2021/11/24 19:08:23;;;;;;;1.70;1.50;;;17.80;55.70;;;;;;10490910;28;20216;-64
2021/11/24 19:13:46;;;;;;;2.27;1.43;;;17.80;55.50;;;;;;10487869;28;20204;-65
2021/11/24 19:19:09;;;;;;;1.63;1.53;;;17.80;56.10;;;;;;10488506;28;20251;-65
2021/11/24 19:24:33;;;;;;;1.50;1.40;;;17.80;56.70;;;;;;10492363;28;20207;-65
2021/11/24 19:29:55;;;;;;;1.63;1.40;;;17.80;56.50;;;;;;10493457;28;20617;-65
2021/11/24 19:35:21;;;;;;;2.30;1.70;;;17.80;55.70;;;;;;10493275;28;20586;-65
2021/11/24 19:40:43;;;;;;;3.30;1.90;;;17.80;55.10;;;;;;10466934;28;20197;-65
2021/11/24 19:46:07;;;;;;;1.80;1.70;;;17.80;54.30;;;;;;10485541;28;20216;-65
2021/11/24 19:51:31;;;;;;;1.80;1.60;;;17.80;54.30;;;;;;10518049;28;20305;-64
2021/11/24 19:56:53;;;;;;;2.03;1.83;;;17.80;54.70;;;;;;10492465;28;20607;-65
2021/11/24 20:02:15;;;;;;;2.20;2.00;;;17.80;54.10;;;;;;10493139;28;20192;-65
2021/11/24 20:07:39;;;;;;;3.70;2.07;;;17.80;53.90;;;;;;10491643;28;20219;-65
2021/11/24 20:13:02;;;;;;;2.40;2.20;;;17.80;53.70;;;;;;10506297;28;20200;-65
2021/11/24 20:18:25;;;;;;;2.20;2.00;;;17.80;53.50;;;;;;10504471;28;20212;-64
2021/11/24 20:23:48;;;;;;;2.33;1.93;;;17.80;53.40;;;;;;10519291;28;20204;-65
2021/11/24 20:29:10;;;;;;;2.60;1.83;;;17.80;53.10;;;;;;10533782;28;20238;-65
2021/11/24 20:34:33;;;;;;;2.03;1.90;;;17.80;53.10;;;;;;10523766;28;20200;-65
2021/11/24 20:39:56;;;;;;;1.80;1.70;;;17.80;53.30;;;;;;10499934;28;20230;-65
2021/11/24 20:45:18;;;;;;;1.97;1.70;;;17.80;53.40;;;;;;10500113;28;20216;-65
2021/11/24 20:50:40;;;;;;;1.60;1.50;;;17.80;53.60;;;;;;10501642;28;20224;-65
2021/11/24 20:56:12;;;;;;;2.43;2.00;;;17.80;54.10;;;;;;10505924;28;20216;-65
2021/11/24 21:01:34;;;;;;;2.77;2.20;;;17.80;53.50;;;;;;10509459;28;20201;-65
2021/11/24 21:06:56;;;;;;;2.63;2.07;;;17.80;53.00;;;;;;10499191;28;20216;-65
2021/11/24 21:12:20;;;;;;;2.70;1.90;;;17.80;53.50;;;;;;10498612;28;20709;-65
2021/11/24 21:17:43;;;;;;;3.23;2.23;;;17.80;53.30;;;;;;10498920;28;20224;-65
2021/11/24 21:23:05;;;;;;;2.70;2.37;;;17.80;53.20;;;;;;10498514;28;20197;-65
2021/11/24 21:28:29;;;;;;;2.87;2.27;;;17.70;53.10;;;;;;10498224;28;20232;-65
2021/11/24 21:33:52;;;;;;;2.43;2.20;;;17.80;53.20;;;;;;10499189;28;20196;-65
2021/11/24 21:39:14;;;;;;;2.60;1.97;;;17.70;53.20;;;;;;10496930;28;20217;-65
2021/11/24 21:44:38;;;;;;;2.10;1.90;;;17.70;53.30;;;;;;10492829;28;20686;-65
2021/11/24 21:50:00;;;;;;;2.83;1.93;;;17.70;53.40;;;;;;10488827;28;20220;-65
2021/11/24 21:55:25;;;;;;;3.10;2.20;;;17.60;53.80;;;;;;10497841;28;20249;-65
2021/11/24 22:00:49;;;;;;;2.47;1.97;;;17.50;54.20;;;;;;10497343;28;20188;-65
2021/11/24 22:06:12;;;;;;;2.63;1.97;;;17.40;54.50;;;;;;10496657;28;20216;-65
2021/11/24 22:11:35;;;;;;;2.63;1.90;;;17.40;54.80;;;;;;10496408;28;20249;-65
2021/11/24 22:17:02;;;;;;;2.00;1.80;;;17.30;55.00;;;;;;10496332;28;20216;-65
2021/11/24 22:22:24;;;;;;;2.20;2.00;;;17.30;55.20;;;;;;10496144;28;20567;-65
2021/11/24 22:27:47;;;;;;;2.23;1.87;;;17.30;55.40;;;;;;10495905;28;20221;-65
2021/11/24 22:33:10;;;;;;;1.70;1.60;;;17.30;55.60;;;;;;10495857;28;20195;-65
2021/11/24 22:38:33;;;;;;;3.00;1.80;;;17.30;55.60;;;;;;10495132;28;20224;-65
2021/11/24 22:43:55;;;;;;;2.27;1.90;;;17.20;55.50;;;;;;10495407;28;20200;-65
2021/11/24 22:49:19;;;;;;;2.77;2.10;;;17.20;55.40;;;;;;10494772;28;20228;-65
2021/11/24 22:54:41;;;;;;;2.17;1.97;;;17.30;55.10;;;;;;10486908;28;20208;-65
2021/11/24 23:00:05;;;;;;;2.70;2.10;;;17.30;54.90;;;;;;10494628;28;20195;-65
2021/11/24 23:05:29;;;;;;;3.33;2.00;;;17.30;54.90;;;;;;10492999;28;20223;-64
2021/11/24 23:10:51;;;;;;;2.07;1.87;;;17.30;55.10;;;;;;10493601;28;20208;-65
2021/11/24 23:16:13;;;;;;;2.77;1.70;;;17.30;55.20;;;;;;10493949;28;20212;-65
2021/11/24 23:21:37;;;;;;;2.27;1.97;;;17.20;55.30;;;;;;10494368;28;20575;-66
2021/11/24 23:26:59;;;;;;;2.23;1.60;;;17.20;55.40;;;;;;10493643;28;20216;-65
2021/11/24 23:32:22;;;;;;;2.07;1.50;;;17.20;55.50;;;;;;10493688;28;20213;-65
2021/11/24 23:37:45;;;;;;;2.00;1.80;;;17.20;55.60;;;;;;10514316;22;20229;-70
2021/11/24 23:43:07;;;;;;;2.10;1.70;;;17.20;55.60;;;;;;10453657;28;20201;-70
2021/11/24 23:48:29;;;;;;;4.67;1.80;;;17.20;55.60;;;;;;10434441;28;20592;-70
2021/11/24 23:53:53;;;;;;;2.40;1.90;;;17.10;55.40;;;;;;10370000;28;20209;-71
2021/11/24 23:59:15;;;;;;;1.70;1.50;;;17.20;55.30;;;;;;10420551;28;20221;-70
